sensor_id;sensor_type;location;lat;lon;timestamp;temperature;humidity
74537;SHT31;63013;51.104;-115.370;2022-12-18T00:01:32;20.28;33.60
74537;SHT31;63013;51.104;-115.370;2022-12-18T00:04:05;20.29;33.60
74537;SHT31;63013;51.104;-115.370;2022-12-18T00:06:47;20.29;33.61
74537;SHT31;63013;51.104;-115.370;2022-12-18T00:09:15;20.27;33.61
74537;SHT31;63013;51.104;-115.370;2022-12-18T00:11:43;20.26;33.61
74537;SHT31;63013;51.104;-115.370;2022-12-18T00:14:10;20.23;33.61
74537;SHT31;63013;51.104;-115.370;2022-12-18T00:16:39;20.20;33.61
74537;SHT31;63013;51.104;-115.370;2022-12-18T00:19:11;20.19;33.62
74537;SHT31;63013;51.104;-115.370;2022-12-18T00:21:39;20.18;33.60
74537;SHT31;63013;51.104;-115.370;2022-12-18T00:24:09;20.18;33.60
74537;SHT31;63013;51.104;-115.370;2022-12-18T00:26:37;20.18;33.59
74537;SHT31;63013;51.104;-115.370;2022-12-18T00:29:12;20.20;33.60
74537;SHT31;63013;51.104;-115.370;2022-12-18T00:31:40;20.21;33.53
74537;SHT31;63013;51.104;-115.370;2022-12-18T00:34:12;20.23;33.50
74537;SHT31;63013;51.104;-115.370;2022-12-18T00:36:40;20.26;33.49
74537;SHT31;63013;51.104;-115.370;2022-12-18T00:39:08;20.27;33.46
74537;SHT31;63013;51.104;-115.370;2022-12-18T00:41:37;20.28;33.43
74537;SHT31;63013;51.104;-115.370;2022-12-18T00:44:23;20.26;33.41
74537;SHT31;63013;51.104;-115.370;2022-12-18T00:46:50;20.24;33.47
74537;SHT31;63013;51.104;-115.370;2022-12-18T00:49:18;20.20;33.50
74537;SHT31;63013;51.104;-115.370;2022-12-18T00:51:46;20.20;33.53
74537;SHT31;63013;51.104;-115.370;2022-12-18T00:54:15;20.18;33.68
74537;SHT31;63013;51.104;-115.370;2022-12-18T00:56:43;20.17;33.80
74537;SHT31;63013;51.104;-115.370;2022-12-18T00:59:10;20.17;33.87
74537;SHT31;63013;51.104;-115.370;2022-12-18T01:01:37;20.18;34.25
74537;SHT31;63013;51.104;-115.370;2022-12-18T01:04:05;20.21;34.51
74537;SHT31;63013;51.104;-115.370;2022-12-18T01:06:32;20.23;34.56
74537;SHT31;63013;51.104;-115.370;2022-12-18T01:08:59;20.26;34.49
74537;SHT31;63013;51.104;-115.370;2022-12-18T01:11:27;20.26;34.43
74537;SHT31;63013;51.104;-115.370;2022-12-18T01:13:54;20.26;34.39
74537;SHT31;63013;51.104;-115.370;2022-12-18T01:16:22;20.25;34.35
74537;SHT31;63013;51.104;-115.370;2022-12-18T01:18:52;20.25;34.34
74537;SHT31;63013;51.104;-115.370;2022-12-18T01:21:21;20.24;34.39
74537;SHT31;63013;51.104;-115.370;2022-12-18T01:23:53;20.22;34.31
74537;SHT31;63013;51.104;-115.370;2022-12-18T01:26:23;20.21;34.30
74537;SHT31;63013;51.104;-115.370;2022-12-18T01:28:53;20.19;34.31
74537;SHT31;63013;51.104;-115.370;2022-12-18T01:31:23;20.18;34.27
74537;SHT31;63013;51.104;-115.370;2022-12-18T01:33:54;20.18;34.20
74537;SHT31;63013;51.104;-115.370;2022-12-18T01:36:24;20.19;34.26
74537;SHT31;63013;51.104;-115.370;2022-12-18T01:38:59;20.21;34.47
74537;SHT31;63013;51.104;-115.370;2022-12-18T01:41:29;20.24;34.51
74537;SHT31;63013;51.104;-115.370;2022-12-18T01:47:31;20.30;34.34
74537;SHT31;63013;51.104;-115.370;2022-12-18T01:50:24;20.34;34.26
74537;SHT31;63013;51.104;-115.370;2022-12-18T01:53:19;20.35;34.20
74537;SHT31;63013;51.104;-115.370;2022-12-18T01:55:50;20.35;34.13
74537;SHT31;63013;51.104;-115.370;2022-12-18T01:58:22;20.32;34.13
74537;SHT31;63013;51.104;-115.370;2022-12-18T02:01:03;20.31;34.13
74537;SHT31;63013;51.104;-115.370;2022-12-18T02:03:30;20.30;34.13
74537;SHT31;63013;51.104;-115.370;2022-12-18T02:08:42;20.25;34.10
74537;SHT31;63013;51.104;-115.370;2022-12-18T02:14:21;20.24;34.03
74537;SHT31;63013;51.104;-115.370;2022-12-18T02:17:07;20.26;34.00
74537;SHT31;63013;51.104;-115.370;2022-12-18T02:26:30;20.27;33.89
74537;SHT31;63013;51.104;-115.370;2022-12-18T02:29:14;20.25;33.88
74537;SHT31;63013;51.104;-115.370;2022-12-18T02:32:26;20.23;33.82
74537;SHT31;63013;51.104;-115.370;2022-12-18T02:35:04;20.20;33.87
74537;SHT31;63013;51.104;-115.370;2022-12-18T02:37:35;20.17;33.89
74537;SHT31;63013;51.104;-115.370;2022-12-18T02:40:06;20.17;33.81
74537;SHT31;63013;51.104;-115.370;2022-12-18T02:42:41;20.17;33.82
74537;SHT31;63013;51.104;-115.370;2022-12-18T02:45:08;20.17;33.80
74537;SHT31;63013;51.104;-115.370;2022-12-18T02:47:37;20.18;33.76
74537;SHT31;63013;51.104;-115.370;2022-12-18T02:53:22;20.18;33.70
74537;SHT31;63013;51.104;-115.370;2022-12-18T02:56:07;20.16;33.70
74537;SHT31;63013;51.104;-115.370;2022-12-18T02:58:47;20.15;33.71
74537;SHT31;63013;51.104;-115.370;2022-12-18T03:01:49;20.12;33.77
74537;SHT31;63013;51.104;-115.370;2022-12-18T03:07:15;20.07;33.76
74537;SHT31;63013;51.104;-115.370;2022-12-18T03:09:53;20.04;33.80
74537;SHT31;63013;51.104;-115.370;2022-12-18T03:12:42;20.03;33.79
74537;SHT31;63013;51.104;-115.370;2022-12-18T03:15:24;20.01;33.79
74537;SHT31;63013;51.104;-115.370;2022-12-18T03:18:01;19.98;33.80
74537;SHT31;63013;51.104;-115.370;2022-12-18T03:20:38;19.95;33.80
74537;SHT31;63013;51.104;-115.370;2022-12-18T03:23:11;19.93;33.81
74537;SHT31;63013;51.104;-115.370;2022-12-18T03:25:45;19.91;33.80
74537;SHT31;63013;51.104;-115.370;2022-12-18T03:28:17;19.88;33.80
74537;SHT31;63013;51.104;-115.370;2022-12-18T03:30:49;19.86;33.74
74537;SHT31;63013;51.104;-115.370;2022-12-18T03:33:29;19.83;33.70
74537;SHT31;63013;51.104;-115.370;2022-12-18T03:36:05;19.81;33.64
74537;SHT31;63013;51.104;-115.370;2022-12-18T03:38:33;19.78;33.68
74537;SHT31;63013;51.104;-115.370;2022-12-18T03:41:10;19.75;33.70
74537;SHT31;63013;51.104;-115.370;2022-12-18T03:43:51;19.73;33.70
74537;SHT31;63013;51.104;-115.370;2022-12-18T03:52:02;19.64;33.70
74537;SHT31;63013;51.104;-115.370;2022-12-18T03:54:41;19.62;33.70
74537;SHT31;63013;51.104;-115.370;2022-12-18T03:57:14;19.61;33.70
74537;SHT31;63013;51.104;-115.370;2022-12-18T03:59:49;19.58;33.70
74537;SHT31;63013;51.104;-115.370;2022-12-18T04:02:23;19.56;33.70
74537;SHT31;63013;51.104;-115.370;2022-12-18T04:04:53;19.55;33.70
74537;SHT31;63013;51.104;-115.370;2022-12-18T04:07:26;19.52;33.70
74537;SHT31;63013;51.104;-115.370;2022-12-18T04:09:54;19.50;33.69
74537;SHT31;63013;51.104;-115.370;2022-12-18T04:12:28;19.49;33.60
74537;SHT31;63013;51.104;-115.370;2022-12-18T04:14:56;19.45;33.60
74537;SHT31;63013;51.104;-115.370;2022-12-18T04:17:23;19.43;33.60
74537;SHT31;63013;51.104;-115.370;2022-12-18T04:19:50;19.40;33.60
74537;SHT31;63013;51.104;-115.370;2022-12-18T04:22:18;19.38;33.60
74537;SHT31;63013;51.104;-115.370;2022-12-18T04:24:45;19.36;33.60
74537;SHT31;63013;51.104;-115.370;2022-12-18T04:27:12;19.34;33.60
74537;SHT31;63013;51.104;-115.370;2022-12-18T04:29:39;19.31;33.60
74537;SHT31;63013;51.104;-115.370;2022-12-18T04:32:07;19.29;33.61
74537;SHT31;63013;51.104;-115.370;2022-12-18T04:34:35;19.27;33.59
74537;SHT31;63013;51.104;-115.370;2022-12-18T04:37:02;19.25;33.60
74537;SHT31;63013;51.104;-115.370;2022-12-18T04:39:29;19.23;33.59
74537;SHT31;63013;51.104;-115.370;2022-12-18T04:41:57;19.20;33.60
74537;SHT31;63013;51.104;-115.370;2022-12-18T04:44:24;19.18;33.60
74537;SHT31;63013;51.104;-115.370;2022-12-18T04:46:51;19.15;33.57
74537;SHT31;63013;51.104;-115.370;2022-12-18T04:49:18;19.13;33.52
74537;SHT31;63013;51.104;-115.370;2022-12-18T04:51:46;19.12;33.49
74537;SHT31;63013;51.104;-115.370;2022-12-18T04:54:13;19.09;33.49
74537;SHT31;63013;51.104;-115.370;2022-12-18T04:56:40;19.06;33.45
74537;SHT31;63013;51.104;-115.370;2022-12-18T04:59:07;19.03;33.44
74537;SHT31;63013;51.104;-115.370;2022-12-18T05:01:35;19.01;33.44
74537;SHT31;63013;51.104;-115.370;2022-12-18T05:04:02;18.99;33.42
74537;SHT31;63013;51.104;-115.370;2022-12-18T05:06:29;18.96;33.41
74537;SHT31;63013;51.104;-115.370;2022-12-18T05:08:57;18.93;33.40
74537;SHT31;63013;51.104;-115.370;2022-12-18T05:11:24;18.90;33.40
74537;SHT31;63013;51.104;-115.370;2022-12-18T05:13:51;18.88;33.40
74537;SHT31;63013;51.104;-115.370;2022-12-18T05:16:19;18.84;33.41
74537;SHT31;63013;51.104;-115.370;2022-12-18T05:18:46;18.81;33.40
74537;SHT31;63013;51.104;-115.370;2022-12-18T05:21:13;18.80;33.40
74537;SHT31;63013;51.104;-115.370;2022-12-18T05:23:40;18.77;33.40
74537;SHT31;63013;51.104;-115.370;2022-12-18T05:26:07;18.74;33.40
74537;SHT31;63013;51.104;-115.370;2022-12-18T05:28:39;18.72;33.41
74537;SHT31;63013;51.104;-115.370;2022-12-18T05:31:06;18.69;33.34
74537;SHT31;63013;51.104;-115.370;2022-12-18T05:33:34;18.66;33.30
74537;SHT31;63013;51.104;-115.370;2022-12-18T05:36:03;18.63;33.30
74537;SHT31;63013;51.104;-115.370;2022-12-18T05:38:33;18.61;33.29
74537;SHT31;63013;51.104;-115.370;2022-12-18T05:41:02;18.59;33.29
74537;SHT31;63013;51.104;-115.370;2022-12-18T05:43:30;18.58;33.28
74537;SHT31;63013;51.104;-115.370;2022-12-18T05:46:02;18.55;33.26
74537;SHT31;63013;51.104;-115.370;2022-12-18T05:48:32;18.53;33.27
74537;SHT31;63013;51.104;-115.370;2022-12-18T05:51:06;18.51;33.24
74537;SHT31;63013;51.104;-115.370;2022-12-18T05:53:37;18.48;33.24
74537;SHT31;63013;51.104;-115.370;2022-12-18T05:56:06;18.45;33.24
74537;SHT31;63013;51.104;-115.370;2022-12-18T05:58:40;18.43;33.27
74537;SHT31;63013;51.104;-115.370;2022-12-18T06:03:39;18.39;33.23
74537;SHT31;63013;51.104;-115.370;2022-12-18T06:06:19;18.38;33.25
74537;SHT31;63013;51.104;-115.370;2022-12-18T06:08:53;18.33;33.22
74537;SHT31;63013;51.104;-115.370;2022-12-18T06:11:22;18.32;33.19
74537;SHT31;63013;51.104;-115.370;2022-12-18T06:13:55;18.30;33.17
74537;SHT31;63013;51.104;-115.370;2022-12-18T06:16:23;18.27;33.15
74537;SHT31;63013;51.104;-115.370;2022-12-18T06:18:50;18.24;33.11
74537;SHT31;63013;51.104;-115.370;2022-12-18T06:21:17;18.22;33.14
74537;SHT31;63013;51.104;-115.370;2022-12-18T06:23:45;18.20;33.15
74537;SHT31;63013;51.104;-115.370;2022-12-18T06:26:12;18.17;33.16
74537;SHT31;63013;51.104;-115.370;2022-12-18T06:28:41;18.16;33.18
74537;SHT31;63013;51.104;-115.370;2022-12-18T06:31:08;18.15;33.14
74537;SHT31;63013;51.104;-115.370;2022-12-18T06:33:37;18.11;33.16
74537;SHT31;63013;51.104;-115.370;2022-12-18T06:36:06;18.10;33.15
74537;SHT31;63013;51.104;-115.370;2022-12-18T06:38:39;18.07;33.16
74537;SHT31;63013;51.104;-115.370;2022-12-18T06:41:09;18.05;33.17
74537;SHT31;63013;51.104;-115.370;2022-12-18T06:43:44;18.02;33.14
74537;SHT31;63013;51.104;-115.370;2022-12-18T06:46:12;18.00;33.13
74537;SHT31;63013;51.104;-115.370;2022-12-18T06:48:40;17.98;33.11
74537;SHT31;63013;51.104;-115.370;2022-12-18T06:51:07;17.95;33.10
74537;SHT31;63013;51.104;-115.370;2022-12-18T06:53:34;17.93;33.03
74537;SHT31;63013;51.104;-115.370;2022-12-18T06:56:02;17.91;33.01
74537;SHT31;63013;51.104;-115.370;2022-12-18T06:58:32;17.89;33.01
74537;SHT31;63013;51.104;-115.370;2022-12-18T07:01:00;17.86;33.02
74537;SHT31;63013;51.104;-115.370;2022-12-18T07:03:29;17.84;33.02
74537;SHT31;63013;51.104;-115.370;2022-12-18T07:05:57;17.81;33.01
74537;SHT31;63013;51.104;-115.370;2022-12-18T07:08:24;17.79;33.02
74537;SHT31;63013;51.104;-115.370;2022-12-18T07:10:51;17.76;33.02
74537;SHT31;63013;51.104;-115.370;2022-12-18T07:13:19;17.75;33.01
74537;SHT31;63013;51.104;-115.370;2022-12-18T07:15:46;17.71;33.00
74537;SHT31;63013;51.104;-115.370;2022-12-18T07:18:14;17.69;33.03
74537;SHT31;63013;51.104;-115.370;2022-12-18T07:20:41;17.67;33.01
74537;SHT31;63013;51.104;-115.370;2022-12-18T07:23:09;17.66;33.02
74537;SHT31;63013;51.104;-115.370;2022-12-18T07:25:36;17.62;33.01
74537;SHT31;63013;51.104;-115.370;2022-12-18T07:28:05;17.61;32.99
74537;SHT31;63013;51.104;-115.370;2022-12-18T07:30:32;17.59;32.95
74537;SHT31;63013;51.104;-115.370;2022-12-18T07:32:59;17.57;32.91
74537;SHT31;63013;51.104;-115.370;2022-12-18T07:35:26;17.54;32.93
74537;SHT31;63013;51.104;-115.370;2022-12-18T07:37:53;17.51;32.91
74537;SHT31;63013;51.104;-115.370;2022-12-18T07:40:20;17.50;32.90
74537;SHT31;63013;51.104;-115.370;2022-12-18T07:42:47;17.47;32.90
74537;SHT31;63013;51.104;-115.370;2022-12-18T07:45:15;17.45;32.91
74537;SHT31;63013;51.104;-115.370;2022-12-18T07:47:42;17.42;32.91
74537;SHT31;63013;51.104;-115.370;2022-12-18T07:50:10;17.40;32.93
74537;SHT31;63013;51.104;-115.370;2022-12-18T07:52:38;17.37;32.93
74537;SHT31;63013;51.104;-115.370;2022-12-18T07:55:06;17.35;32.91
74537;SHT31;63013;51.104;-115.370;2022-12-18T07:57:33;17.33;32.90
74537;SHT31;63013;51.104;-115.370;2022-12-18T08:00:01;17.30;32.95
74537;SHT31;63013;51.104;-115.370;2022-12-18T08:02:30;17.28;32.97
74537;SHT31;63013;51.104;-115.370;2022-12-18T08:04:57;17.25;32.92
74537;SHT31;63013;51.104;-115.370;2022-12-18T08:07:24;17.23;32.90
74537;SHT31;63013;51.104;-115.370;2022-12-18T08:09:52;17.22;32.84
74537;SHT31;63013;51.104;-115.370;2022-12-18T08:12:19;17.19;32.81
74537;SHT31;63013;51.104;-115.370;2022-12-18T08:14:46;17.17;32.89
74537;SHT31;63013;51.104;-115.370;2022-12-18T08:17:13;17.15;32.84
74537;SHT31;63013;51.104;-115.370;2022-12-18T08:19:41;17.13;32.82
74537;SHT31;63013;51.104;-115.370;2022-12-18T08:22:08;17.12;32.82
74537;SHT31;63013;51.104;-115.370;2022-12-18T08:24:35;17.08;32.82
74537;SHT31;63013;51.104;-115.370;2022-12-18T08:27:02;17.07;32.83
74537;SHT31;63013;51.104;-115.370;2022-12-18T08:29:29;17.04;32.81
74537;SHT31;63013;51.104;-115.370;2022-12-18T08:31:57;17.02;32.90
74537;SHT31;63013;51.104;-115.370;2022-12-18T08:34:24;17.00;32.85
74537;SHT31;63013;51.104;-115.370;2022-12-18T08:36:52;16.98;32.84
74537;SHT31;63013;51.104;-115.370;2022-12-18T08:39:19;16.95;32.86
74537;SHT31;63013;51.104;-115.370;2022-12-18T08:41:46;16.92;32.87
74537;SHT31;63013;51.104;-115.370;2022-12-18T08:44:33;16.90;32.87
74537;SHT31;63013;51.104;-115.370;2022-12-18T08:47:03;16.87;32.84
74537;SHT31;63013;51.104;-115.370;2022-12-18T08:49:32;16.85;32.81
74537;SHT31;63013;51.104;-115.370;2022-12-18T08:52:00;16.82;32.78
74537;SHT31;63013;51.104;-115.370;2022-12-18T08:54:28;16.80;32.92
74537;SHT31;63013;51.104;-115.370;2022-12-18T08:56:55;16.79;32.95
74537;SHT31;63013;51.104;-115.370;2022-12-18T08:59:23;16.77;33.00
74537;SHT31;63013;51.104;-115.370;2022-12-18T09:01:50;16.75;32.87
74537;SHT31;63013;51.104;-115.370;2022-12-18T09:04:20;16.73;32.80
74537;SHT31;63013;51.104;-115.370;2022-12-18T09:06:48;16.70;32.89
74537;SHT31;63013;51.104;-115.370;2022-12-18T09:09:15;16.69;32.92
74537;SHT31;63013;51.104;-115.370;2022-12-18T09:11:42;16.66;32.97
74537;SHT31;63013;51.104;-115.370;2022-12-18T09:14:10;16.64;32.88
74537;SHT31;63013;51.104;-115.370;2022-12-18T09:16:37;16.62;32.86
74537;SHT31;63013;51.104;-115.370;2022-12-18T09:19:04;16.59;32.99
74537;SHT31;63013;51.104;-115.370;2022-12-18T09:21:32;16.57;32.96
74537;SHT31;63013;51.104;-115.370;2022-12-18T09:24:01;16.56;32.83
74537;SHT31;63013;51.104;-115.370;2022-12-18T09:26:28;16.53;32.79
74537;SHT31;63013;51.104;-115.370;2022-12-18T09:28:55;16.52;32.71
74537;SHT31;63013;51.104;-115.370;2022-12-18T09:31:23;16.51;32.70
74537;SHT31;63013;51.104;-115.370;2022-12-18T09:33:51;16.52;32.68
74537;SHT31;63013;51.104;-115.370;2022-12-18T09:36:20;16.52;32.68
74537;SHT31;63013;51.104;-115.370;2022-12-18T09:38:48;16.54;32.69
74537;SHT31;63013;51.104;-115.370;2022-12-18T09:41:36;16.54;32.67
74537;SHT31;63013;51.104;-115.370;2022-12-18T09:44:30;16.52;32.70
74537;SHT31;63013;51.104;-115.370;2022-12-18T09:47:13;16.50;32.73
74537;SHT31;63013;51.104;-115.370;2022-12-18T09:50:03;16.48;32.84
74537;SHT31;63013;51.104;-115.370;2022-12-18T09:52:48;16.46;32.87
74537;SHT31;63013;51.104;-115.370;2022-12-18T10:00:56;16.40;32.81
74537;SHT31;63013;51.104;-115.370;2022-12-18T10:03:23;16.38;32.78
74537;SHT31;63013;51.104;-115.370;2022-12-18T10:14:30;16.41;32.67
74537;SHT31;63013;51.104;-115.370;2022-12-18T10:17:56;16.43;32.70
74537;SHT31;63013;51.104;-115.370;2022-12-18T10:20:34;16.41;32.72
74537;SHT31;63013;51.104;-115.370;2022-12-18T10:23:12;16.39;32.76
74537;SHT31;63013;51.104;-115.370;2022-12-18T10:28:43;16.35;32.88
74537;SHT31;63013;51.104;-115.370;2022-12-18T10:31:16;16.34;32.87
74537;SHT31;63013;51.104;-115.370;2022-12-18T10:33:48;16.32;32.82
74537;SHT31;63013;51.104;-115.370;2022-12-18T10:36:16;16.30;32.79
74537;SHT31;63013;51.104;-115.370;2022-12-18T10:38:43;16.31;32.77
74537;SHT31;63013;51.104;-115.370;2022-12-18T10:46:38;16.34;32.76
74537;SHT31;63013;51.104;-115.370;2022-12-18T10:49:05;16.36;32.69
74537;SHT31;63013;51.104;-115.370;2022-12-18T10:52:15;16.37;32.71
74537;SHT31;63013;51.104;-115.370;2022-12-18T10:54:54;16.36;32.77
74537;SHT31;63013;51.104;-115.370;2022-12-18T10:57:37;16.34;32.79
74537;SHT31;63013;51.104;-115.370;2022-12-18T11:02:56;16.31;32.85
74537;SHT31;63013;51.104;-115.370;2022-12-18T11:05:25;16.29;32.87
74537;SHT31;63013;51.104;-115.370;2022-12-18T11:07:55;16.27;32.81
74537;SHT31;63013;51.104;-115.370;2022-12-18T11:10:33;16.27;32.78
74537;SHT31;63013;51.104;-115.370;2022-12-18T11:13:25;16.27;32.79
74537;SHT31;63013;51.104;-115.370;2022-12-18T11:15:56;16.29;32.80
74537;SHT31;63013;51.104;-115.370;2022-12-18T11:18:26;16.31;32.80
74537;SHT31;63013;51.104;-115.370;2022-12-18T11:21:05;16.34;32.79
74537;SHT31;63013;51.104;-115.370;2022-12-18T11:23:59;16.34;32.79
74537;SHT31;63013;51.104;-115.370;2022-12-18T11:26:33;16.34;32.75
74537;SHT31;63013;51.104;-115.370;2022-12-18T11:29:08;16.33;32.75
74537;SHT31;63013;51.104;-115.370;2022-12-18T11:31:43;16.31;32.77
74537;SHT31;63013;51.104;-115.370;2022-12-18T11:34:11;16.30;32.79
74537;SHT31;63013;51.104;-115.370;2022-12-18T11:36:59;16.29;32.80
74537;SHT31;63013;51.104;-115.370;2022-12-18T11:39:46;16.27;32.79
74537;SHT31;63013;51.104;-115.370;2022-12-18T11:45:20;16.24;32.74
74537;SHT31;63013;51.104;-115.370;2022-12-18T11:48:14;16.25;32.75
74537;SHT31;63013;51.104;-115.370;2022-12-18T11:51:09;16.27;32.77
74537;SHT31;63013;51.104;-115.370;2022-12-18T11:53:45;16.30;32.80
74537;SHT31;63013;51.104;-115.370;2022-12-18T11:59:38;16.33;32.80
74537;SHT31;63013;51.104;-115.370;2022-12-18T12:20:08;16.22;32.71
74537;SHT31;63013;51.104;-115.370;2022-12-18T12:23:01;16.21;32.77
74537;SHT31;63013;51.104;-115.370;2022-12-18T12:35:04;16.32;32.80
74537;SHT31;63013;51.104;-115.370;2022-12-18T12:38:15;16.37;32.77
74537;SHT31;63013;51.104;-115.370;2022-12-18T12:41:17;16.41;32.78
74537;SHT31;63013;51.104;-115.370;2022-12-18T12:44:16;16.45;32.75
74537;SHT31;63013;51.104;-115.370;2022-12-18T12:47:14;16.49;32.71
74537;SHT31;63013;51.104;-115.370;2022-12-18T12:50:06;16.51;32.63
74537;SHT31;63013;51.104;-115.370;2022-12-18T12:52:46;16.54;32.66
74537;SHT31;63013;51.104;-115.370;2022-12-18T12:55:26;16.58;32.68
74537;SHT31;63013;51.104;-115.370;2022-12-18T13:00:50;16.65;32.63
74537;SHT31;63013;51.104;-115.370;2022-12-18T13:04:02;16.69;32.66
74537;SHT31;63013;51.104;-115.370;2022-12-18T13:12:51;16.82;32.68
74537;SHT31;63013;51.104;-115.370;2022-12-18T13:15:32;16.84;32.68
74537;SHT31;63013;51.104;-115.370;2022-12-18T13:20:36;16.91;32.70
74537;SHT31;63013;51.104;-115.370;2022-12-18T13:36:52;17.12;32.58
74537;SHT31;63013;51.104;-115.370;2022-12-18T13:39:24;17.15;32.57
74537;SHT31;63013;51.104;-115.370;2022-12-18T13:44:32;17.21;32.60
74537;SHT31;63013;51.104;-115.370;2022-12-18T13:47:25;17.24;32.59
74537;SHT31;63013;51.104;-115.370;2022-12-18T13:50:11;17.28;32.61
74537;SHT31;63013;51.104;-115.370;2022-12-18T13:52:52;17.31;32.60
74537;SHT31;63013;51.104;-115.370;2022-12-18T13:55:19;17.34;32.64
74537;SHT31;63013;51.104;-115.370;2022-12-18T13:57:49;17.37;32.62
74537;SHT31;63013;51.104;-115.370;2022-12-18T14:00:31;17.41;32.63
74537;SHT31;63013;51.104;-115.370;2022-12-18T14:02:58;17.44;32.61
74537;SHT31;63013;51.104;-115.370;2022-12-18T14:07:55;17.51;32.50
74537;SHT31;63013;51.104;-115.370;2022-12-18T14:10:42;17.55;32.49
74537;SHT31;63013;51.104;-115.370;2022-12-18T14:13:32;17.60;32.48
74537;SHT31;63013;51.104;-115.370;2022-12-18T14:16:05;17.64;32.48
74537;SHT31;63013;51.104;-115.370;2022-12-18T14:18:48;17.69;32.48
74537;SHT31;63013;51.104;-115.370;2022-12-18T14:21:25;17.76;32.48
74537;SHT31;63013;51.104;-115.370;2022-12-18T14:24:05;17.81;32.47
74537;SHT31;63013;51.104;-115.370;2022-12-18T14:26:47;17.88;32.44
74537;SHT31;63013;51.104;-115.370;2022-12-18T14:32:06;18.00;32.44
74537;SHT31;63013;51.104;-115.370;2022-12-18T14:34:39;18.07;32.42
74537;SHT31;63013;51.104;-115.370;2022-12-18T14:37:10;18.15;32.40
74537;SHT31;63013;51.104;-115.370;2022-12-18T14:39:39;18.20;32.40
74537;SHT31;63013;51.104;-115.370;2022-12-18T14:42:09;18.23;32.40
74537;SHT31;63013;51.104;-115.370;2022-12-18T14:44:37;18.26;32.33
74537;SHT31;63013;51.104;-115.370;2022-12-18T14:47:05;18.30;32.29
74537;SHT31;63013;51.104;-115.370;2022-12-18T14:49:40;18.32;32.27
74537;SHT31;63013;51.104;-115.370;2022-12-18T14:52:27;18.34;32.38
74537;SHT31;63013;51.104;-115.370;2022-12-18T14:54:57;18.38;32.50
74537;SHT31;63013;51.104;-115.370;2022-12-18T14:57:25;18.42;32.65
74537;SHT31;63013;51.104;-115.370;2022-12-18T15:00:07;18.47;32.76
74537;SHT31;63013;51.104;-115.370;2022-12-18T15:02:48;18.55;32.81
74537;SHT31;63013;51.104;-115.370;2022-12-18T15:05:24;18.61;32.81
74537;SHT31;63013;51.104;-115.370;2022-12-18T15:07:55;18.65;32.87
74537;SHT31;63013;51.104;-115.370;2022-12-18T15:10:26;18.72;32.88
74537;SHT31;63013;51.104;-115.370;2022-12-18T15:18:02;18.87;32.83
74537;SHT31;63013;51.104;-115.370;2022-12-18T15:23:35;18.95;32.80
74537;SHT31;63013;51.104;-115.370;2022-12-18T15:26:16;18.99;32.74
74537;SHT31;63013;51.104;-115.370;2022-12-18T15:28:51;19.01;32.70
74537;SHT31;63013;51.104;-115.370;2022-12-18T15:34:20;19.11;32.70
74537;SHT31;63013;51.104;-115.370;2022-12-18T15:36:50;19.15;32.72
74537;SHT31;63013;51.104;-115.370;2022-12-18T15:39:17;19.19;32.70
74537;SHT31;63013;51.104;-115.370;2022-12-18T15:41:44;19.24;32.70
74537;SHT31;63013;51.104;-115.370;2022-12-18T15:44:30;19.32;32.69
74537;SHT31;63013;51.104;-115.370;2022-12-18T15:46:58;19.40;32.62
74537;SHT31;63013;51.104;-115.370;2022-12-18T15:49:25;19.47;32.61
74537;SHT31;63013;51.104;-115.370;2022-12-18T15:51:53;19.55;32.56
74537;SHT31;63013;51.104;-115.370;2022-12-18T15:54:25;19.59;32.54
74537;SHT31;63013;51.104;-115.370;2022-12-18T15:57:11;19.60;32.63
74537;SHT31;63013;51.104;-115.370;2022-12-18T15:59:51;19.60;32.70
74537;SHT31;63013;51.104;-115.370;2022-12-18T16:02:23;19.58;32.73
74537;SHT31;63013;51.104;-115.370;2022-12-18T16:04:51;19.57;32.72
74537;SHT31;63013;51.104;-115.370;2022-12-18T16:07:19;19.54;32.73
74537;SHT31;63013;51.104;-115.370;2022-12-18T16:09:47;19.55;32.76
74537;SHT31;63013;51.104;-115.370;2022-12-18T16:12:19;19.57;32.71
74537;SHT31;63013;51.104;-115.370;2022-12-18T16:14:51;19.58;32.72
74537;SHT31;63013;51.104;-115.370;2022-12-18T16:17:18;19.63;32.70
74537;SHT31;63013;51.104;-115.370;2022-12-18T16:19:45;19.68;32.69
74537;SHT31;63013;51.104;-115.370;2022-12-18T16:22:17;19.74;32.63
74537;SHT31;63013;51.104;-115.370;2022-12-18T16:24:52;19.82;32.56
74537;SHT31;63013;51.104;-115.370;2022-12-18T16:27:21;19.88;32.50
74537;SHT31;63013;51.104;-115.370;2022-12-18T16:29:50;19.88;32.51
74537;SHT31;63013;51.104;-115.370;2022-12-18T16:32:18;19.88;32.53
74537;SHT31;63013;51.104;-115.370;2022-12-18T16:34:47;19.86;32.50
74537;SHT31;63013;51.104;-115.370;2022-12-18T16:37:15;19.84;32.55
74537;SHT31;63013;51.104;-115.370;2022-12-18T16:39:43;19.83;32.59
74537;SHT31;63013;51.104;-115.370;2022-12-18T16:42:15;19.81;32.57
74537;SHT31;63013;51.104;-115.370;2022-12-18T16:44:46;19.82;32.52
74537;SHT31;63013;51.104;-115.370;2022-12-18T16:47:15;19.82;32.50
74537;SHT31;63013;51.104;-115.370;2022-12-18T16:49:43;19.84;32.51
74537;SHT31;63013;51.104;-115.370;2022-12-18T16:52:11;19.88;32.50
74537;SHT31;63013;51.104;-115.370;2022-12-18T16:54:39;19.92;32.50
74537;SHT31;63013;51.104;-115.370;2022-12-18T16:57:08;19.96;32.50
74537;SHT31;63013;51.104;-115.370;2022-12-18T16:59:39;19.98;32.50
74537;SHT31;63013;51.104;-115.370;2022-12-18T17:02:16;19.99;32.55
74537;SHT31;63013;51.104;-115.370;2022-12-18T17:04:46;19.98;32.60
74537;SHT31;63013;51.104;-115.370;2022-12-18T17:07:14;19.98;32.82
74537;SHT31;63013;51.104;-115.370;2022-12-18T17:09:41;19.96;33.12
74537;SHT31;63013;51.104;-115.370;2022-12-18T17:12:09;19.94;33.12
74537;SHT31;63013;51.104;-115.370;2022-12-18T17:14:36;19.92;33.17
74537;SHT31;63013;51.104;-115.370;2022-12-18T17:17:03;19.92;33.20
74537;SHT31;63013;51.104;-115.370;2022-12-18T17:19:31;19.92;33.19
74537;SHT31;63013;51.104;-115.370;2022-12-18T17:21:59;19.94;33.13
74537;SHT31;63013;51.104;-115.370;2022-12-18T17:24:27;19.96;33.05
74537;SHT31;63013;51.104;-115.370;2022-12-18T17:26:54;19.98;33.02
74537;SHT31;63013;51.104;-115.370;2022-12-18T17:29:21;20.01;33.00
74537;SHT31;63013;51.104;-115.370;2022-12-18T17:31:48;20.06;32.98
74537;SHT31;63013;51.104;-115.370;2022-12-18T17:34:15;20.09;32.99